sensor_id;sensor_type;location;lat;lon;timestamp;pressure;altitude;pressure_sealevel;temperature;humidity
69223;BME280;56514;51.816;-0.026;2023-02-08T00:00:45;103248.59;;;0.74;67.49
69223;BME280;56514;51.816;-0.026;2023-02-08T00:03:51;103252.84;;;0.69;67.71
69223;BME280;56514;51.816;-0.026;2023-02-08T00:06:56;103251.88;;;0.63;68.08
69223;BME280;56514;51.816;-0.026;2023-02-08T00:10:01;103251.84;;;0.60;67.43
69223;BME280;56514;51.816;-0.026;2023-02-08T00:13:12;103247.47;;;0.54;67.40
69223;BME280;56514;51.816;-0.026;2023-02-08T00:16:22;103247.41;;;0.50;67.37
69223;BME280;56514;51.816;-0.026;2023-02-08T00:19:31;103242.16;;;0.47;67.01
69223;BME280;56514;51.816;-0.026;2023-02-08T00:22:40;103253.41;;;0.44;67.17
69223;BME280;56514;51.816;-0.026;2023-02-08T00:25:50;103256.00;;;0.44;67.74
69223;BME280;56514;51.816;-0.026;2023-02-08T00:29:00;103251.66;;;0.46;67.59
69223;BME280;56514;51.816;-0.026;2023-02-08T00:32:10;103253.50;;;0.52;67.50
69223;BME280;56514;51.816;-0.026;2023-02-08T00:35:19;103259.66;;;0.61;67.56
69223;BME280;56514;51.816;-0.026;2023-02-08T00:38:29;103254.56;;;0.70;67.33
69223;BME280;56514;51.816;-0.026;2023-02-08T00:41:38;103252.16;;;0.81;67.20
69223;BME280;56514;51.816;-0.026;2023-02-08T00:44:24;103254.03;;;0.94;67.51
69223;BME280;56514;51.816;-0.026;2023-02-08T00:47:09;103253.28;;;1.07;66.90
69223;BME280;56514;51.816;-0.026;2023-02-08T00:49:53;103251.69;;;1.19;67.00
69223;BME280;56514;51.816;-0.026;2023-02-08T00:52:38;103256.19;;;1.32;66.84
69223;BME280;56514;51.816;-0.026;2023-02-08T00:55:24;103252.84;;;1.47;67.03
69223;BME280;56514;51.816;-0.026;2023-02-08T00:58:09;103242.53;;;1.56;66.58
69223;BME280;56514;51.816;-0.026;2023-02-08T01:00:55;103246.09;;;1.64;66.14
69223;BME280;56514;51.816;-0.026;2023-02-08T01:03:42;103239.19;;;1.69;66.54
69223;BME280;56514;51.816;-0.026;2023-02-08T01:06:28;103244.47;;;1.76;66.37
69223;BME280;56514;51.816;-0.026;2023-02-08T01:09:14;103238.41;;;1.80;66.34
69223;BME280;56514;51.816;-0.026;2023-02-08T01:11:59;103239.34;;;1.86;66.52
69223;BME280;56514;51.816;-0.026;2023-02-08T01:14:44;103240.22;;;1.91;66.49
69223;BME280;56514;51.816;-0.026;2023-02-08T01:17:29;103233.31;;;1.93;66.52
69223;BME280;56514;51.816;-0.026;2023-02-08T01:20:15;103228.94;;;1.90;66.42
69223;BME280;56514;51.816;-0.026;2023-02-08T01:23:00;103228.06;;;1.87;66.67
69223;BME280;56514;51.816;-0.026;2023-02-08T01:25:45;103215.91;;;1.84;66.39
69223;BME280;56514;51.816;-0.026;2023-02-08T01:28:30;103218.50;;;1.83;66.35
69223;BME280;56514;51.816;-0.026;2023-02-08T01:31:21;103222.81;;;1.83;67.00
69223;BME280;56514;51.816;-0.026;2023-02-08T01:34:08;103218.50;;;1.84;66.80
69223;BME280;56514;51.816;-0.026;2023-02-08T01:36:54;103226.31;;;1.86;66.63
69223;BME280;56514;51.816;-0.026;2023-02-08T01:39:39;103216.75;;;1.86;67.05
69223;BME280;56514;51.816;-0.026;2023-02-08T01:42:24;103228.06;;;1.90;66.62
69223;BME280;56514;51.816;-0.026;2023-02-08T01:45:19;103224.56;;;1.88;66.70
69223;BME280;56514;51.816;-0.026;2023-02-08T01:48:13;103221.13;;;1.86;67.07
69223;BME280;56514;51.816;-0.026;2023-02-08T01:51:06;103232.38;;;1.89;66.91
69223;BME280;56514;51.816;-0.026;2023-02-08T01:53:54;103223.72;;;1.86;66.97
69223;BME280;56514;51.816;-0.026;2023-02-08T01:56:46;103222.84;;;1.85;67.11
69223;BME280;56514;51.816;-0.026;2023-02-08T01:59:40;103211.53;;;1.83;66.99
69223;BME280;56514;51.816;-0.026;2023-02-08T02:02:27;103211.47;;;1.77;66.94
69223;BME280;56514;51.816;-0.026;2023-02-08T02:05:12;103209.72;;;1.73;67.09
69223;BME280;56514;51.816;-0.026;2023-02-08T02:07:58;103207.94;;;1.66;67.23
69223;BME280;56514;51.816;-0.026;2023-02-08T02:10:46;103201.84;;;1.62;67.53
69223;BME280;56514;51.816;-0.026;2023-02-08T02:13:31;103201.81;;;1.59;67.33
69223;BME280;56514;51.816;-0.026;2023-02-08T02:16:17;103197.44;;;1.57;67.70
69223;BME280;56514;51.816;-0.026;2023-02-08T02:19:09;103192.25;;;1.57;67.73
69223;BME280;56514;51.816;-0.026;2023-02-08T02:22:06;103195.72;;;1.59;67.24
69223;BME280;56514;51.816;-0.026;2023-02-08T02:40:32;103183.63;;;1.61;67.31
69223;BME280;56514;51.816;-0.026;2023-02-08T02:43:25;103177.53;;;1.59;67.46
69223;BME280;56514;51.816;-0.026;2023-02-08T02:46:45;103167.13;;;1.59;67.21
69223;BME280;56514;51.816;-0.026;2023-02-08T02:49:51;103157.56;;;1.56;67.61
69223;BME280;56514;51.816;-0.026;2023-02-08T02:52:45;103148.88;;;1.54;67.34
69223;BME280;56514;51.816;-0.026;2023-02-08T02:55:34;103148.00;;;1.54;67.42
69223;BME280;56514;51.816;-0.026;2023-02-08T02:58:22;103149.75;;;1.53;67.62
69223;BME280;56514;51.816;-0.026;2023-02-08T03:01:08;103148.84;;;1.50;67.45
69223;BME280;56514;51.816;-0.026;2023-02-08T03:03:54;103147.97;;;1.49;67.72
69223;BME280;56514;51.816;-0.026;2023-02-08T03:16:19;103127.97;;;1.39;67.31
69223;BME280;56514;51.816;-0.026;2023-02-08T03:22:09;103126.13;;;1.25;67.81
69223;BME280;56514;51.816;-0.026;2023-02-08T03:32:16;103134.44;;;0.89;68.73
69223;BME280;56514;51.816;-0.026;2023-02-08T03:38:10;103122.06;;;0.66;68.43
69223;BME280;56514;51.816;-0.026;2023-02-08T03:40:59;103128.06;;;0.60;68.17
69223;BME280;56514;51.816;-0.026;2023-02-08T03:43:53;103129.72;;;0.55;68.61
69223;BME280;56514;51.816;-0.026;2023-02-08T03:46:56;103127.88;;;0.45;68.80
69223;BME280;56514;51.816;-0.026;2023-02-08T03:49:44;103122.69;;;0.44;68.40
69223;BME280;56514;51.816;-0.026;2023-02-08T03:52:30;103118.34;;;0.43;68.74
69223;BME280;56514;51.816;-0.026;2023-02-08T03:55:20;103122.69;;;0.44;68.67
69223;BME280;56514;51.816;-0.026;2023-02-08T03:58:23;103115.78;;;0.44;69.23
69223;BME280;56514;51.816;-0.026;2023-02-08T04:01:17;103108.81;;;0.43;68.54
69223;BME280;56514;51.816;-0.026;2023-02-08T04:04:04;103108.81;;;0.43;68.76
69223;BME280;56514;51.816;-0.026;2023-02-08T04:06:49;103099.28;;;0.42;68.92
69223;BME280;56514;51.816;-0.026;2023-02-08T04:09:34;103106.22;;;0.43;68.58
69223;BME280;56514;51.816;-0.026;2023-02-08T04:12:19;103110.56;;;0.41;68.75
69223;BME280;56514;51.816;-0.026;2023-02-08T04:15:05;103111.34;;;0.37;68.98
69223;BME280;56514;51.816;-0.026;2023-02-08T04:17:50;103104.34;;;0.30;68.74
69223;BME280;56514;51.816;-0.026;2023-02-08T04:20:35;103107.69;;;0.22;68.98
69223;BME280;56514;51.816;-0.026;2023-02-08T04:23:19;103112.81;;;0.17;69.23
69223;BME280;56514;51.816;-0.026;2023-02-08T04:26:05;103108.44;;;0.12;69.21
69223;BME280;56514;51.816;-0.026;2023-02-08T04:28:52;103100.63;;;0.10;68.99
69223;BME280;56514;51.816;-0.026;2023-02-08T04:31:37;103097.13;;;0.07;69.20
69223;BME280;56514;51.816;-0.026;2023-02-08T04:34:22;103098.84;;;0.05;68.95
69223;BME280;56514;51.816;-0.026;2023-02-08T04:37:08;103104.81;;;0.00;68.46
69223;BME280;56514;51.816;-0.026;2023-02-08T04:39:53;103104.88;;;0.03;68.71
69223;BME280;56514;51.816;-0.026;2023-02-08T04:42:38;103104.03;;;0.05;68.72
69223;BME280;56514;51.816;-0.026;2023-02-08T04:45:23;103098.88;;;0.06;69.13
69223;BME280;56514;51.816;-0.026;2023-02-08T04:48:08;103102.34;;;0.10;69.11
69223;BME280;56514;51.816;-0.026;2023-02-08T04:50:57;103108.47;;;0.13;69.24
69223;BME280;56514;51.816;-0.026;2023-02-08T04:53:43;103109.41;;;0.18;68.86
69223;BME280;56514;51.816;-0.026;2023-02-08T04:56:28;103110.28;;;0.22;68.57
69223;BME280;56514;51.816;-0.026;2023-02-08T04:59:13;103116.41;;;0.25;68.77
69223;BME280;56514;51.816;-0.026;2023-02-08T05:01:58;103112.09;;;0.27;68.52
69223;BME280;56514;51.816;-0.026;2023-02-08T05:04:44;103112.91;;;0.25;68.20
69223;BME280;56514;51.816;-0.026;2023-02-08T05:07:28;103112.91;;;0.25;68.43
69223;BME280;56514;51.816;-0.026;2023-02-08T05:10:14;103116.41;;;0.25;68.42
69223;BME280;56514;51.816;-0.026;2023-02-08T05:12:59;103115.53;;;0.26;68.25
69223;BME280;56514;51.816;-0.026;2023-02-08T05:15:44;103119.03;;;0.28;68.40
69223;BME280;56514;51.816;-0.026;2023-02-08T05:18:29;103125.13;;;0.32;68.40
69223;BME280;56514;51.816;-0.026;2023-02-08T05:21:14;103115.56;;;0.29;68.44
69223;BME280;56514;51.816;-0.026;2023-02-08T05:23:59;103112.09;;;0.27;68.21
69223;BME280;56514;51.816;-0.026;2023-02-08T05:26:44;103110.34;;;0.28;68.26
69223;BME280;56514;51.816;-0.026;2023-02-08T05:29:29;103110.31;;;0.25;68.54
69223;BME280;56514;51.816;-0.026;2023-02-08T05:32:13;103106.84;;;0.21;68.38
69223;BME280;56514;51.816;-0.026;2023-02-08T05:34:58;103103.28;;;0.13;67.96
69223;BME280;56514;51.816;-0.026;2023-02-08T05:37:44;103100.56;;;0.04;67.90
69223;BME280;56514;51.816;-0.026;2023-02-08T05:40:29;103102.13;;;-0.07;68.07
69223;BME280;56514;51.816;-0.026;2023-02-08T05:43:14;103107.19;;;-0.18;68.43
69223;BME280;56514;51.816;-0.026;2023-02-08T05:45:59;103108.78;;;-0.26;68.39
69223;BME280;56514;51.816;-0.026;2023-02-08T05:48:44;103116.41;;;-0.36;68.40
69223;BME280;56514;51.816;-0.026;2023-02-08T05:51:29;103105.91;;;-0.45;68.00
69223;BME280;56514;51.816;-0.026;2023-02-08T05:54:15;103092.00;;;-0.50;68.20
69223;BME280;56514;51.816;-0.026;2023-02-08T05:56:59;103093.66;;;-0.55;68.51
69223;BME280;56514;51.816;-0.026;2023-02-08T05:59:44;103084.94;;;-0.60;68.20
69223;BME280;56514;51.816;-0.026;2023-02-08T06:02:28;103087.44;;;-0.66;68.50
69223;BME280;56514;51.816;-0.026;2023-02-08T06:05:14;103098.53;;;-0.76;68.37
69223;BME280;56514;51.816;-0.026;2023-02-08T06:07:59;103097.41;;;-0.90;68.06
69223;BME280;56514;51.816;-0.026;2023-02-08T06:10:47;103089.41;;;-1.05;68.05
69223;BME280;56514;51.816;-0.026;2023-02-08T06:13:34;103100.44;;;-1.14;68.67
69223;BME280;56514;51.816;-0.026;2023-02-08T06:16:19;103101.19;;;-1.21;68.53
69223;BME280;56514;51.816;-0.026;2023-02-08T06:19:04;103110.66;;;-1.23;68.50
69223;BME280;56514;51.816;-0.026;2023-02-08T06:21:49;103108.09;;;-1.21;68.46
69223;BME280;56514;51.816;-0.026;2023-02-08T06:24:33;103114.16;;;-1.21;68.72
69223;BME280;56514;51.816;-0.026;2023-02-08T06:27:18;103104.72;;;-1.17;68.27
69223;BME280;56514;51.816;-0.026;2023-02-08T06:30:03;103097.06;;;-1.11;68.49
69223;BME280;56514;51.816;-0.026;2023-02-08T06:32:48;103092.00;;;-1.05;68.13
69223;BME280;56514;51.816;-0.026;2023-02-08T06:35:33;103092.91;;;-1.00;68.93
69223;BME280;56514;51.816;-0.026;2023-02-08T06:38:18;103093.84;;;-0.97;68.42
69223;BME280;56514;51.816;-0.026;2023-02-08T06:41:03;103107.81;;;-0.89;68.75
69223;BME280;56514;51.816;-0.026;2023-02-08T06:43:49;103099.25;;;-0.83;68.18
69223;BME280;56514;51.816;-0.026;2023-02-08T06:46:33;103093.25;;;-0.81;68.95
69223;BME280;56514;51.816;-0.026;2023-02-08T06:49:19;103090.72;;;-0.78;68.56
69223;BME280;56514;51.816;-0.026;2023-02-08T06:52:04;103095.06;;;-0.75;68.84
69223;BME280;56514;51.816;-0.026;2023-02-08T06:54:49;103086.50;;;-0.71;68.49
69223;BME280;56514;51.816;-0.026;2023-02-08T06:57:33;103086.56;;;-0.67;68.42
69223;BME280;56514;51.816;-0.026;2023-02-08T07:00:18;103092.63;;;-0.66;68.44
69223;BME280;56514;51.816;-0.026;2023-02-08T07:03:03;103097.00;;;-0.62;68.69
69223;BME280;56514;51.816;-0.026;2023-02-08T07:05:48;103092.75;;;-0.59;68.21
69223;BME280;56514;51.816;-0.026;2023-02-08T07:08:33;103091.84;;;-0.59;68.26
69223;BME280;56514;51.816;-0.026;2023-02-08T07:11:19;103085.00;;;-0.57;68.71
69223;BME280;56514;51.816;-0.026;2023-02-08T07:14:04;103079.81;;;-0.56;68.02
69223;BME280;56514;51.816;-0.026;2023-02-08T07:16:48;103075.53;;;-0.55;68.35
69223;BME280;56514;51.816;-0.026;2023-02-08T07:19:33;103070.34;;;-0.55;68.79
69223;BME280;56514;51.816;-0.026;2023-02-08T07:22:18;103062.50;;;-0.60;68.29
69223;BME280;56514;51.816;-0.026;2023-02-08T07:25:04;103064.19;;;-0.60;68.25
69223;BME280;56514;51.816;-0.026;2023-02-08T07:27:49;103068.47;;;-0.64;68.37
69223;BME280;56514;51.816;-0.026;2023-02-08T07:30:35;103066.63;;;-0.72;68.49
69223;BME280;56514;51.816;-0.026;2023-02-08T07:33:20;103061.28;;;-0.81;69.01
69223;BME280;56514;51.816;-0.026;2023-02-08T07:36:06;103068.94;;;-0.90;69.04
69223;BME280;56514;51.816;-0.026;2023-02-08T07:38:51;103056.72;;;-0.96;68.29
69223;BME280;56514;51.816;-0.026;2023-02-08T07:41:35;103068.78;;;-0.99;69.03
69223;BME280;56514;51.816;-0.026;2023-02-08T07:44:20;103073.91;;;-1.02;68.63
69223;BME280;56514;51.816;-0.026;2023-02-08T07:47:05;103064.34;;;-1.05;69.04
69223;BME280;56514;51.816;-0.026;2023-02-08T07:49:51;103074.72;;;-1.03;69.03
69223;BME280;56514;51.816;-0.026;2023-02-08T07:52:36;103075.69;;;-0.98;68.59
69223;BME280;56514;51.816;-0.026;2023-02-08T07:55:21;103071.50;;;-0.92;68.60
69223;BME280;56514;51.816;-0.026;2023-02-08T07:58:05;103069.84;;;-0.85;68.43
69223;BME280;56514;51.816;-0.026;2023-02-08T08:00:50;103064.81;;;-0.78;68.66
69223;BME280;56514;51.816;-0.026;2023-02-08T08:03:35;103070.13;;;-0.70;68.40
69223;BME280;56514;51.816;-0.026;2023-02-08T08:06:21;103059.78;;;-0.67;68.13
69223;BME280;56514;51.816;-0.026;2023-02-08T08:09:06;103059.88;;;-0.61;67.81
69223;BME280;56514;51.816;-0.026;2023-02-08T08:11:51;103060.81;;;-0.55;67.70
69223;BME280;56514;51.816;-0.026;2023-02-08T08:14:37;103057.47;;;-0.48;67.66
69223;BME280;56514;51.816;-0.026;2023-02-08T08:17:21;103053.31;;;-0.38;67.96
69223;BME280;56514;51.816;-0.026;2023-02-08T08:20:08;103061.22;;;-0.29;67.68
69223;BME280;56514;51.816;-0.026;2023-02-08T08:22:53;103052.59;;;-0.25;67.69
69223;BME280;56514;51.816;-0.026;2023-02-08T08:25:37;103054.38;;;-0.21;67.43
69223;BME280;56514;51.816;-0.026;2023-02-08T08:28:22;103044.97;;;-0.15;67.44
69223;BME280;56514;51.816;-0.026;2023-02-08T08:31:20;103051.09;;;-0.08;67.62
69223;BME280;56514;51.816;-0.026;2023-02-08T08:34:05;103055.47;;;-0.04;67.56
69223;BME280;56514;51.816;-0.026;2023-02-08T08:36:50;103059.00;;;0.01;67.77
69223;BME280;56514;51.816;-0.026;2023-02-08T08:39:36;103068.53;;;0.03;67.63
69223;BME280;56514;51.816;-0.026;2023-02-08T08:42:20;103077.25;;;0.07;67.22
69223;BME280;56514;51.816;-0.026;2023-02-08T08:45:06;103073.78;;;0.08;67.41
69223;BME280;56514;51.816;-0.026;2023-02-08T08:47:51;103060.81;;;0.10;67.71
69223;BME280;56514;51.816;-0.026;2023-02-08T08:50:36;103068.66;;;0.14;67.96
69223;BME280;56514;51.816;-0.026;2023-02-08T08:53:22;103075.72;;;0.24;67.83
69223;BME280;56514;51.816;-0.026;2023-02-08T08:56:07;103078.50;;;0.39;67.36
69223;BME280;56514;51.816;-0.026;2023-02-08T08:58:52;103077.81;;;0.58;67.44
69223;BME280;56514;51.816;-0.026;2023-02-08T09:01:37;103079.72;;;0.74;66.79
69223;BME280;56514;51.816;-0.026;2023-02-08T09:04:23;103082.41;;;0.83;66.97
69223;BME280;56514;51.816;-0.026;2023-02-08T09:07:09;103078.13;;;0.88;66.65
69223;BME280;56514;51.816;-0.026;2023-02-08T09:09:54;103072.09;;;0.91;66.24
69223;BME280;56514;51.816;-0.026;2023-02-08T09:12:38;103074.66;;;0.88;66.25
69223;BME280;56514;51.816;-0.026;2023-02-08T09:15:23;103074.66;;;0.88;66.55
69223;BME280;56514;51.816;-0.026;2023-02-08T09:18:08;103067.81;;;0.96;66.39
69223;BME280;56514;51.816;-0.026;2023-02-08T09:20:53;103066.16;;;1.08;66.64
69223;BME280;56514;51.816;-0.026;2023-02-08T09:23:38;103061.09;;;1.20;66.22
69223;BME280;56514;51.816;-0.026;2023-02-08T09:26:23;103055.09;;;1.33;66.11
69223;BME280;56514;51.816;-0.026;2023-02-08T09:29:09;103056.06;;;1.44;66.49
69223;BME280;56514;51.816;-0.026;2023-02-08T09:31:55;103060.41;;;1.51;66.08
69223;BME280;56514;51.816;-0.026;2023-02-08T09:34:40;103069.16;;;1.61;66.08
69223;BME280;56514;51.816;-0.026;2023-02-08T09:37:25;103064.88;;;1.70;65.86
69223;BME280;56514;51.816;-0.026;2023-02-08T09:40:30;103076.19;;;1.78;66.11
69223;BME280;56514;51.816;-0.026;2023-02-08T09:43:28;103058.88;;;1.85;65.59
69223;BME280;56514;51.816;-0.026;2023-02-08T09:46:23;103060.63;;;1.89;65.45
69223;BME280;56514;51.816;-0.026;2023-02-08T09:49:17;103051.94;;;1.86;65.44
69223;BME280;56514;51.816;-0.026;2023-02-08T09:52:10;103052.78;;;1.84;65.88
69223;BME280;56514;51.816;-0.026;2023-02-08T09:54:58;103041.50;;;1.79;65.56
69223;BME280;56514;51.816;-0.026;2023-02-08T09:57:46;103038.91;;;1.76;65.86
69223;BME280;56514;51.816;-0.026;2023-02-08T10:00:39;103045.78;;;1.71;66.22
69223;BME280;56514;51.816;-0.026;2023-02-08T10:03:36;103045.78;;;1.70;66.57
69223;BME280;56514;51.816;-0.026;2023-02-08T10:06:21;103051.00;;;1.71;66.78
69223;BME280;56514;51.816;-0.026;2023-02-08T10:09:11;103058.81;;;1.70;67.22
69223;BME280;56514;51.816;-0.026;2023-02-08T10:12:17;103057.06;;;1.70;67.33
69223;BME280;56514;51.816;-0.026;2023-02-08T10:18:31;103058.84;;;1.79;67.81
69223;BME280;56514;51.816;-0.026;2023-02-08T10:21:41;103062.34;;;1.83;67.40
69223;BME280;56514;51.816;-0.026;2023-02-08T10:24:52;103057.16;;;1.86;67.67
69223;BME280;56514;51.816;-0.026;2023-02-08T10:27:54;103058.91;;;1.96;67.94
69223;BME280;56514;51.816;-0.026;2023-02-08T10:31:35;103057.25;;;2.11;67.55
69223;BME280;56514;51.816;-0.026;2023-02-08T10:34:10;103056.44;;;2.29;67.53
69223;BME280;56514;51.816;-0.026;2023-02-08T10:37:29;103054.75;;;2.43;67.59
69223;BME280;56514;51.816;-0.026;2023-02-08T10:46:19;103046.13;;;2.87;67.07
69223;BME280;56514;51.816;-0.026;2023-02-08T10:49:17;103048.75;;;3.05;66.79
69223;BME280;56514;51.816;-0.026;2023-02-08T10:52:06;103046.13;;;3.16;66.88
69223;BME280;56514;51.816;-0.026;2023-02-08T10:54:51;103041.78;;;3.30;66.72
69223;BME280;56514;51.816;-0.026;2023-02-08T10:57:37;103029.59;;;3.44;66.75
69223;BME280;56514;51.816;-0.026;2023-02-08T11:00:26;103032.16;;;3.59;66.61
69223;BME280;56514;51.816;-0.026;2023-02-08T11:03:16;103027.78;;;3.73;66.39
69223;BME280;56514;51.816;-0.026;2023-02-08T11:06:02;103020.75;;;3.84;66.36
69223;BME280;56514;51.816;-0.026;2023-02-08T11:08:54;103021.59;;;3.89;66.69
69223;BME280;56514;51.816;-0.026;2023-02-08T11:11:40;103013.72;;;3.98;66.54
69223;BME280;56514;51.816;-0.026;2023-02-08T11:14:32;103015.44;;;4.10;66.92
69223;BME280;56514;51.816;-0.026;2023-02-08T11:17:31;103005.75;;;4.25;66.24
69223;BME280;56514;51.816;-0.026;2023-02-08T11:20:28;103006.56;;;4.36;66.51
69223;BME280;56514;51.816;-0.026;2023-02-08T11:26:32;103002.00;;;4.65;66.40
69223;BME280;56514;51.816;-0.026;2023-02-08T11:29:28;102995.81;;;4.77;66.49
69223;BME280;56514;51.816;-0.026;2023-02-08T11:32:18;102996.53;;;4.92;66.37
69223;BME280;56514;51.816;-0.026;2023-02-08T11:35:19;102984.16;;;5.12;66.01
69223;BME280;56514;51.816;-0.026;2023-02-08T11:38:16;102971.78;;;5.28;66.14
69223;BME280;56514;51.816;-0.026;2023-02-08T11:41:04;102968.13;;;5.42;65.99
69223;BME280;56514;51.816;-0.026;2023-02-08T11:44:01;102965.34;;;5.59;65.99
69223;BME280;56514;51.816;-0.026;2023-02-08T11:46:48;102952.88;;;5.76;65.48
69223;BME280;56514;51.816;-0.026;2023-02-08T11:49:42;102949.19;;;5.95;65.33
69223;BME280;56514;51.816;-0.026;2023-02-08T11:52:40;102947.19;;;6.14;65.60
69223;BME280;56514;51.816;-0.026;2023-02-08T11:55:29;102942.56;;;6.29;65.18
69223;BME280;56514;51.816;-0.026;2023-02-08T12:01:17;102924.69;;;6.54;64.83
69223;BME280;56514;51.816;-0.026;2023-02-08T12:04:06;102916.63;;;6.64;64.26
69223;BME280;56514;51.816;-0.026;2023-02-08T12:10:12;102901.22;;;6.95;63.49
69223;BME280;56514;51.816;-0.026;2023-02-08T12:22:58;102883.44;;;7.53;62.10
69223;BME280;56514;51.816;-0.026;2023-02-08T12:38:12;102869.81;;;8.12;59.11
69223;BME280;56514;51.816;-0.026;2023-02-08T12:41:22;102863.31;;;8.30;58.76
69223;BME280;56514;51.816;-0.026;2023-02-08T12:53:47;102850.88;;;9.01;56.35
69223;BME280;56514;51.816;-0.026;2023-02-08T12:56:37;102841.75;;;9.14;55.91
69223;BME280;56514;51.816;-0.026;2023-02-08T12:59:39;102837.78;;;9.28;55.58
69223;BME280;56514;51.816;-0.026;2023-02-08T13:02:40;102835.41;;;9.50;55.43
69223;BME280;56514;51.816;-0.026;2023-02-08T13:05:34;102824.25;;;9.69;54.95
69223;BME280;56514;51.816;-0.026;2023-02-08T13:11:32;102810.97;;;10.00;53.96
69223;BME280;56514;51.816;-0.026;2023-02-08T13:14:32;102803.50;;;10.14;53.34
69223;BME280;56514;51.816;-0.026;2023-02-08T13:17:27;102798.03;;;10.44;53.01
69223;BME280;56514;51.816;-0.026;2023-02-08T13:23:35;102770.84;;;12.22;48.56
69223;BME280;56514;51.816;-0.026;2023-02-08T13:26:26;102773.66;;;13.91;45.77
69223;BME280;56514;51.816;-0.026;2023-02-08T13:29:16;102764.44;;;15.78;42.46
69223;BME280;56514;51.816;-0.026;2023-02-08T13:32:07;102759.66;;;17.28;40.17
69223;BME280;56514;51.816;-0.026;2023-02-08T13:35:02;102757.91;;;18.60;36.35
69223;BME280;56514;51.816;-0.026;2023-02-08T13:37:53;102749.63;;;19.00;34.33
69223;BME280;56514;51.816;-0.026;2023-02-08T13:40:40;102740.13;;;19.58;32.81
69223;BME280;56514;51.816;-0.026;2023-02-08T13:43:36;102723.53;;;20.11;32.94
69223;BME280;56514;51.816;-0.026;2023-02-08T13:46:24;102720.28;;;20.75;32.78
69223;BME280;56514;51.816;-0.026;2023-02-08T13:49:42;102705.63;;;21.34;31.76
69223;BME280;56514;51.816;-0.026;2023-02-08T14:01:35;102685.44;;;22.95;27.25
69223;BME280;56514;51.816;-0.026;2023-02-08T14:04:31;102680.47;;;23.49;26.98
69223;BME280;56514;51.816;-0.026;2023-02-08T14:07:38;102671.69;;;23.66;24.57
69223;BME280;56514;51.816;-0.026;2023-02-08T14:10:34;102664.44;;;23.76;23.91
69223;BME280;56514;51.816;-0.026;2023-02-08T14:13:30;102655.22;;;23.88;23.65
69223;BME280;56514;51.816;-0.026;2023-02-08T14:16:28;102658.09;;;23.96;22.73
69223;BME280;56514;51.816;-0.026;2023-02-08T14:22:03;102661.88;;;24.22;21.81
69223;BME280;56514;51.816;-0.026;2023-02-08T14:24:59;102664.84;;;24.19;20.45
69223;BME280;56514;51.816;-0.026;2023-02-08T14:27:54;102665.00;;;24.08;20.64
69223;BME280;56514;51.816;-0.026;2023-02-08T14:30:49;102656.09;;;23.98;21.11
69223;BME280;56514;51.816;-0.026;2023-02-08T14:33:41;102654.19;;;24.27;21.29
69223;BME280;56514;51.816;-0.026;2023-02-08T14:36:30;102639.28;;;24.60;21.04
69223;BME280;56514;51.816;-0.026;2023-02-08T14:39:25;102635.75;;;24.96;20.92
69223;BME280;56514;51.816;-0.026;2023-02-08T14:42:11;102629.09;;;24.90;19.64
69223;BME280;56514;51.816;-0.026;2023-02-08T14:44:59;102620.66;;;24.76;20.96
69223;BME280;56514;51.816;-0.026;2023-02-08T14:50:33;102611.59;;;25.12;20.50
69223;BME280;56514;51.816;-0.026;2023-02-08T14:56:30;102611.03;;;25.53;21.11
69223;BME280;56514;51.816;-0.026;2023-02-08T14:59:17;102613.75;;;25.35;20.66
69223;BME280;56514;51.816;-0.026;2023-02-08T15:02:14;102592.25;;;25.51;20.52
69223;BME280;56514;51.816;-0.026;2023-02-08T15:05:03;102596.41;;;25.63;20.64
69223;BME280;56514;51.816;-0.026;2023-02-08T15:07:52;102592.06;;;25.88;20.69
69223;BME280;56514;51.816;-0.026;2023-02-08T15:10:41;102589.94;;;26.00;21.15
69223;BME280;56514;51.816;-0.026;2023-02-08T15:13:29;102588.88;;;26.18;20.81
69223;BME280;56514;51.816;-0.026;2023-02-08T15:16:14;102591.06;;;26.40;21.15
69223;BME280;56514;51.816;-0.026;2023-02-08T15:19:04;102592.75;;;26.41;20.64
69223;BME280;56514;51.816;-0.026;2023-02-08T15:21:52;102593.88;;;26.31;20.48
69223;BME280;56514;51.816;-0.026;2023-02-08T15:24:49;102590.72;;;26.10;20.41
69223;BME280;56514;51.816;-0.026;2023-02-08T15:27:34;102598.13;;;26.08;20.68
69223;BME280;56514;51.816;-0.026;2023-02-08T15:33:14;102582.97;;;25.97;20.41
69223;BME280;56514;51.816;-0.026;2023-02-08T15:36:07;102581.56;;;26.11;20.67
69223;BME280;56514;51.816;-0.026;2023-02-08T15:39:01;102591.81;;;26.25;20.19
69223;BME280;56514;51.816;-0.026;2023-02-08T15:41:48;102577.31;;;26.34;20.01
69223;BME280;56514;51.816;-0.026;2023-02-08T15:44:33;102575.97;;;26.38;19.90
69223;BME280;56514;51.816;-0.026;2023-02-08T15:47:33;102576.94;;;26.29;nan
69223;BME280;56514;51.816;-0.026;2023-02-08T15:50:21;102570.53;;;26.30;20.13
69223;BME280;56514;51.816;-0.026;2023-02-08T15:53:12;102563.78;;;26.34;19.11
69223;BME280;56514;51.816;-0.026;2023-02-08T15:56:01;102572.91;;;26.33;20.07
69223;BME280;56514;51.816;-0.026;2023-02-08T15:58:51;102571.34;;;26.22;20.06
69223;BME280;56514;51.816;-0.026;2023-02-08T16:01:37;102573.19;;;26.22;19.81
69223;BME280;56514;51.816;-0.026;2023-02-08T16:04:24;102565.44;;;26.01;19.45
69223;BME280;56514;51.816;-0.026;2023-02-08T16:07:30;102567.38;;;25.65;20.08
69223;BME280;56514;51.816;-0.026;2023-02-08T16:13:27;102560.44;;;24.93;19.99
69223;BME280;56514;51.816;-0.026;2023-02-08T16:16:23;102549.00;;;24.54;20.19
69223;BME280;56514;51.816;-0.026;2023-02-08T16:19:25;102551.28;;;24.22;20.53
69223;BME280;56514;51.816;-0.026;2023-02-08T16:25:31;102549.09;;;22.84;19.97
69223;BME280;56514;51.816;-0.026;2023-02-08T16:28:29;102547.03;;;22.18;20.37
69223;BME280;56514;51.816;-0.026;2023-02-08T16:31:19;102561.22;;;21.58;20.68
69223;BME280;56514;51.816;-0.026;2023-02-08T16:34:07;102551.53;;;20.61;21.56
69223;BME280;56514;51.816;-0.026;2023-02-08T16:36:58;102548.47;;;18.95;22.33
69223;BME280;56514;51.816;-0.026;2023-02-08T16:39:58;102554.19;;;16.89;23.97
69223;BME280;56514;51.816;-0.026;2023-02-08T16:42:43;102552.78;;;14.82;26.07
69223;BME280;56514;51.816;-0.026;2023-02-08T16:45:28;102553.97;;;13.12;28.50